sensor_id;sensor_type;location;lat;lon;timestamp;pressure;altitude;pressure_sealevel;temperature;humidity
77019;BME280;66044;53.142;17.962;2023-03-01T00:01:06;102459.55;;;-2.37;64.10
77019;BME280;66044;53.142;17.962;2023-03-01T00:03:34;102464.09;;;-2.34;64.22
77019;BME280;66044;53.142;17.962;2023-03-01T00:06:01;102463.67;;;-2.29;64.15
77019;BME280;66044;53.142;17.962;2023-03-01T00:08:28;102467.83;;;-2.24;64.18
77019;BME280;66044;53.142;17.962;2023-03-01T00:13:32;102465.89;;;-2.11;63.94
77019;BME280;66044;53.142;17.962;2023-03-01T00:15:59;102464.42;;;-2.06;63.87
77019;BME280;66044;53.142;17.962;2023-03-01T00:18:27;102462.89;;;-2.02;63.88
77019;BME280;66044;53.142;17.962;2023-03-01T00:20:55;102463.45;;;-2.01;64.09
77019;BME280;66044;53.142;17.962;2023-03-01T00:23:23;102461.91;;;-2.01;64.02
77019;BME280;66044;53.142;17.962;2023-03-01T00:25:50;102458.22;;;-2.03;64.11
77019;BME280;66044;53.142;17.962;2023-03-01T00:28:16;102448.63;;;-2.06;64.13
77019;BME280;66044;53.142;17.962;2023-03-01T00:30:44;102446.86;;;-2.12;64.18
77019;BME280;66044;53.142;17.962;2023-03-01T00:33:11;102443.91;;;-2.17;63.99
77019;BME280;66044;53.142;17.962;2023-03-01T00:35:38;102441.77;;;-2.22;64.41
77019;BME280;66044;53.142;17.962;2023-03-01T00:38:05;102443.04;;;-2.27;64.22
77019;BME280;66044;53.142;17.962;2023-03-01T00:40:33;102441.23;;;-2.32;64.38
77019;BME280;66044;53.142;17.962;2023-03-01T00:43:00;102441.63;;;-2.36;64.20
77019;BME280;66044;53.142;17.962;2023-03-01T00:45:27;102437.66;;;-2.36;64.11
77019;BME280;66044;53.142;17.962;2023-03-01T00:47:54;102434.23;;;-2.38;64.27
77019;BME280;66044;53.142;17.962;2023-03-01T00:50:21;102431.23;;;-2.39;64.25
77019;BME280;66044;53.142;17.962;2023-03-01T00:52:52;102433.04;;;-2.41;64.49
77019;BME280;66044;53.142;17.962;2023-03-01T00:55:19;102433.06;;;-2.43;64.15
77019;BME280;66044;53.142;17.962;2023-03-01T00:57:46;102428.23;;;-2.45;64.49
77019;BME280;66044;53.142;17.962;2023-03-01T01:00:12;102421.25;;;-2.49;64.47
77019;BME280;66044;53.142;17.962;2023-03-01T01:02:39;102420.73;;;-2.56;64.40
77019;BME280;66044;53.142;17.962;2023-03-01T01:05:09;102420.38;;;-2.61;64.72
77019;BME280;66044;53.142;17.962;2023-03-01T01:07:36;102420.94;;;-2.65;64.62
77019;BME280;66044;53.142;17.962;2023-03-01T01:10:03;102417.02;;;-2.69;64.66
77019;BME280;66044;53.142;17.962;2023-03-01T01:12:29;102414.61;;;-2.74;64.60
77019;BME280;66044;53.142;17.962;2023-03-01T01:14:56;102407.67;;;-2.78;65.02
77019;BME280;66044;53.142;17.962;2023-03-01T01:17:22;102405.44;;;-2.82;65.01
77019;BME280;66044;53.142;17.962;2023-03-01T01:19:49;102397.98;;;-2.83;65.20
77019;BME280;66044;53.142;17.962;2023-03-01T01:22:15;102396.10;;;-2.84;64.96
77019;BME280;66044;53.142;17.962;2023-03-01T01:24:42;102396.54;;;-2.81;64.83
77019;BME280;66044;53.142;17.962;2023-03-01T01:27:08;102395.45;;;-2.76;64.99
77019;BME280;66044;53.142;17.962;2023-03-01T01:29:35;102389.86;;;-2.70;64.72
77019;BME280;66044;53.142;17.962;2023-03-01T01:32:02;102382.58;;;-2.64;65.04
77019;BME280;66044;53.142;17.962;2023-03-01T01:34:29;102382.88;;;-2.57;64.64
77019;BME280;66044;53.142;17.962;2023-03-01T01:36:55;102385.43;;;-2.50;64.76
77019;BME280;66044;53.142;17.962;2023-03-01T01:39:22;102382.94;;;-2.46;64.67
77019;BME280;66044;53.142;17.962;2023-03-01T01:41:49;102378.83;;;-2.42;64.49
77019;BME280;66044;53.142;17.962;2023-03-01T01:47:03;102369.83;;;-2.39;64.67
77019;BME280;66044;53.142;17.962;2023-03-01T01:52:05;102358.66;;;-2.40;64.72
77019;BME280;66044;53.142;17.962;2023-03-01T01:57:12;102357.09;;;-2.41;64.46
77019;BME280;66044;53.142;17.962;2023-03-01T01:59:43;102357.38;;;-2.43;64.33
77019;BME280;66044;53.142;17.962;2023-03-01T02:02:12;102352.00;;;-2.46;64.56
77019;BME280;66044;53.142;17.962;2023-03-01T02:04:39;102350.67;;;-2.48;64.48
77019;BME280;66044;53.142;17.962;2023-03-01T02:07:19;102344.67;;;-2.51;64.44
77019;BME280;66044;53.142;17.962;2023-03-01T02:09:49;102352.63;;;-2.54;64.73
77019;BME280;66044;53.142;17.962;2023-03-01T02:12:17;102355.75;;;-2.57;64.74
77019;BME280;66044;53.142;17.962;2023-03-01T02:14:45;102353.42;;;-2.60;64.46
77019;BME280;66044;53.142;17.962;2023-03-01T02:17:14;102357.65;;;-2.61;64.41
77019;BME280;66044;53.142;17.962;2023-03-01T02:22:34;102362.64;;;-2.64;64.65
77019;BME280;66044;53.142;17.962;2023-03-01T02:30:36;102355.65;;;-2.71;64.68
77019;BME280;66044;53.142;17.962;2023-03-01T02:33:03;102356.12;;;-2.74;64.88
77019;BME280;66044;53.142;17.962;2023-03-01T02:35:37;102351.16;;;-2.77;64.56
77019;BME280;66044;53.142;17.962;2023-03-01T02:38:07;102353.27;;;-2.79;64.66
77019;BME280;66044;53.142;17.962;2023-03-01T02:40:35;102344.60;;;-2.81;64.82
77019;BME280;66044;53.142;17.962;2023-03-01T02:43:06;102342.55;;;-2.83;64.85
77019;BME280;66044;53.142;17.962;2023-03-01T02:45:34;102339.56;;;-2.83;64.59
77019;BME280;66044;53.142;17.962;2023-03-01T02:48:01;102337.08;;;-2.79;64.88
77019;BME280;66044;53.142;17.962;2023-03-01T02:53:12;102334.77;;;-2.71;65.03
77019;BME280;66044;53.142;17.962;2023-03-01T02:55:41;102330.01;;;-2.67;64.73
77019;BME280;66044;53.142;17.962;2023-03-01T02:58:08;102329.70;;;-2.65;64.88
77019;BME280;66044;53.142;17.962;2023-03-01T03:00:40;102330.14;;;-2.61;64.66
77019;BME280;66044;53.142;17.962;2023-03-01T03:03:14;102328.02;;;-2.60;64.55
77019;BME280;66044;53.142;17.962;2023-03-01T03:05:41;102322.78;;;-2.62;64.89
77019;BME280;66044;53.142;17.962;2023-03-01T03:08:08;102326.49;;;-2.62;64.93
77019;BME280;66044;53.142;17.962;2023-03-01T03:10:38;102328.33;;;-2.62;64.95
77019;BME280;66044;53.142;17.962;2023-03-01T03:13:11;102325.89;;;-2.61;65.20
77019;BME280;66044;53.142;17.962;2023-03-01T03:15:40;102326.30;;;-2.62;65.01
77019;BME280;66044;53.142;17.962;2023-03-01T03:18:10;102325.81;;;-2.62;64.90
77019;BME280;66044;53.142;17.962;2023-03-01T03:20:40;102327.19;;;-2.62;65.18
77019;BME280;66044;53.142;17.962;2023-03-01T03:23:07;102322.83;;;-2.61;64.83
77019;BME280;66044;53.142;17.962;2023-03-01T03:25:34;102319.73;;;-2.60;64.83
77019;BME280;66044;53.142;17.962;2023-03-01T03:28:05;102314.46;;;-2.59;64.98
77019;BME280;66044;53.142;17.962;2023-03-01T03:30:38;102311.30;;;-2.59;64.92
77019;BME280;66044;53.142;17.962;2023-03-01T03:33:05;102305.22;;;-2.61;64.99
77019;BME280;66044;53.142;17.962;2023-03-01T03:35:38;102302.67;;;-2.63;64.95
77019;BME280;66044;53.142;17.962;2023-03-01T03:38:08;102300.80;;;-2.66;65.02
77019;BME280;66044;53.142;17.962;2023-03-01T03:40:44;102291.16;;;-2.69;64.92
77019;BME280;66044;53.142;17.962;2023-03-01T03:43:14;102291.52;;;-2.72;65.03
77019;BME280;66044;53.142;17.962;2023-03-01T03:45:41;102287.14;;;-2.75;65.32
77019;BME280;66044;53.142;17.962;2023-03-01T03:48:09;102283.04;;;-2.77;65.08
77019;BME280;66044;53.142;17.962;2023-03-01T03:50:38;102281.70;;;-2.79;65.15
77019;BME280;66044;53.142;17.962;2023-03-01T03:53:08;102284.70;;;-2.81;65.09
77019;BME280;66044;53.142;17.962;2023-03-01T03:55:35;102281.55;;;-2.82;64.95
77019;BME280;66044;53.142;17.962;2023-03-01T03:58:07;102282.27;;;-2.82;65.20
77019;BME280;66044;53.142;17.962;2023-03-01T04:00:37;102283.76;;;-2.83;65.35
77019;BME280;66044;53.142;17.962;2023-03-01T04:03:04;102285.30;;;-2.82;65.08
77019;BME280;66044;53.142;17.962;2023-03-01T04:05:32;102290.05;;;-2.78;65.23
77019;BME280;66044;53.142;17.962;2023-03-01T04:07:58;102293.27;;;-2.73;64.99
77019;BME280;66044;53.142;17.962;2023-03-01T04:10:34;102291.83;;;-2.66;65.18
77019;BME280;66044;53.142;17.962;2023-03-01T04:13:03;102294.88;;;-2.59;64.84
77019;BME280;66044;53.142;17.962;2023-03-01T04:15:30;102295.87;;;-2.50;65.08
77019;BME280;66044;53.142;17.962;2023-03-01T04:17:57;102293.10;;;-2.43;64.79
77019;BME280;66044;53.142;17.962;2023-03-01T04:20:27;102298.02;;;-2.34;64.74
77019;BME280;66044;53.142;17.962;2023-03-01T04:23:03;102298.02;;;-2.29;64.71
77019;BME280;66044;53.142;17.962;2023-03-01T04:25:42;102300.87;;;-2.25;64.79
77019;BME280;66044;53.142;17.962;2023-03-01T04:28:09;102299.84;;;-2.23;64.73
77019;BME280;66044;53.142;17.962;2023-03-01T04:30:37;102305.08;;;-2.21;64.52
77019;BME280;66044;53.142;17.962;2023-03-01T04:33:08;102302.84;;;-2.22;64.71
77019;BME280;66044;53.142;17.962;2023-03-01T04:35:36;102297.30;;;-2.24;64.86
77019;BME280;66044;53.142;17.962;2023-03-01T04:38:04;102286.48;;;-2.25;64.91
77019;BME280;66044;53.142;17.962;2023-03-01T04:40:31;102279.65;;;-2.28;64.75
77019;BME280;66044;53.142;17.962;2023-03-01T04:42:57;102278.02;;;-2.30;64.87
77019;BME280;66044;53.142;17.962;2023-03-01T04:45:24;102277.00;;;-2.33;64.76
77019;BME280;66044;53.142;17.962;2023-03-01T04:47:50;102277.13;;;-2.37;64.94
77019;BME280;66044;53.142;17.962;2023-03-01T04:50:19;102281.49;;;-2.41;64.99
77019;BME280;66044;53.142;17.962;2023-03-01T04:52:49;102280.63;;;-2.45;65.11
77019;BME280;66044;53.142;17.962;2023-03-01T04:55:16;102280.91;;;-2.47;64.93
77019;BME280;66044;53.142;17.962;2023-03-01T04:57:42;102271.35;;;-2.52;65.05
77019;BME280;66044;53.142;17.962;2023-03-01T05:00:13;102268.30;;;-2.56;65.18
77019;BME280;66044;53.142;17.962;2023-03-01T05:02:58;102267.52;;;-2.61;65.18
77019;BME280;66044;53.142;17.962;2023-03-01T05:05:35;102267.43;;;-2.66;65.30
77019;BME280;66044;53.142;17.962;2023-03-01T05:08:05;102272.27;;;-2.70;65.52
77019;BME280;66044;53.142;17.962;2023-03-01T05:10:33;102271.37;;;-2.75;65.42
77019;BME280;66044;53.142;17.962;2023-03-01T05:13:02;102275.88;;;-2.77;65.59
77019;BME280;66044;53.142;17.962;2023-03-01T05:15:30;102280.95;;;-2.80;65.18
77019;BME280;66044;53.142;17.962;2023-03-01T05:17:58;102280.48;;;-2.82;65.63
77019;BME280;66044;53.142;17.962;2023-03-01T05:20:26;102281.41;;;-2.82;65.22
77019;BME280;66044;53.142;17.962;2023-03-01T05:22:56;102280.72;;;-2.84;65.64
77019;BME280;66044;53.142;17.962;2023-03-01T05:25:23;102279.76;;;-2.80;65.28
77019;BME280;66044;53.142;17.962;2023-03-01T05:27:50;102278.30;;;-2.73;64.96
77019;BME280;66044;53.142;17.962;2023-03-01T05:30:17;102280.11;;;-2.65;65.41
77019;BME280;66044;53.142;17.962;2023-03-01T05:32:46;102276.02;;;-2.59;65.22
77019;BME280;66044;53.142;17.962;2023-03-01T05:35:15;102270.16;;;-2.53;65.49
77019;BME280;66044;53.142;17.962;2023-03-01T05:37:44;102268.23;;;-2.47;65.28
77019;BME280;66044;53.142;17.962;2023-03-01T05:40:13;102271.13;;;-2.44;65.28
77019;BME280;66044;53.142;17.962;2023-03-01T05:42:48;102272.59;;;-2.43;65.16
77019;BME280;66044;53.142;17.962;2023-03-01T05:45:16;102271.34;;;-2.41;65.16
77019;BME280;66044;53.142;17.962;2023-03-01T05:47:45;102268.98;;;-2.38;65.25
77019;BME280;66044;53.142;17.962;2023-03-01T05:50:26;102269.80;;;-2.33;65.29
77019;BME280;66044;53.142;17.962;2023-03-01T05:53:01;102267.67;;;-2.27;65.25
77019;BME280;66044;53.142;17.962;2023-03-01T05:55:31;102269.00;;;-2.22;65.09
77019;BME280;66044;53.142;17.962;2023-03-01T05:58:06;102267.96;;;-2.15;65.08
77019;BME280;66044;53.142;17.962;2023-03-01T06:00:33;102277.31;;;-2.07;64.82
77019;BME280;66044;53.142;17.962;2023-03-01T06:03:00;102280.77;;;-1.99;64.90
77019;BME280;66044;53.142;17.962;2023-03-01T06:05:26;102277.71;;;-1.90;64.78
77019;BME280;66044;53.142;17.962;2023-03-01T06:07:54;102280.30;;;-1.79;64.52
77019;BME280;66044;53.142;17.962;2023-03-01T06:10:21;102277.05;;;-1.67;64.55
77019;BME280;66044;53.142;17.962;2023-03-01T06:12:48;102276.19;;;-1.54;64.46
77019;BME280;66044;53.142;17.962;2023-03-01T06:15:15;102275.11;;;-1.40;64.19
77019;BME280;66044;53.142;17.962;2023-03-01T06:17:44;102279.77;;;-1.27;64.23
77019;BME280;66044;53.142;17.962;2023-03-01T06:20:14;102279.29;;;-1.12;63.82
77019;BME280;66044;53.142;17.962;2023-03-01T06:22:42;102285.55;;;-0.97;63.72
77019;BME280;66044;53.142;17.962;2023-03-01T06:25:09;102287.69;;;-0.88;63.72
77019;BME280;66044;53.142;17.962;2023-03-01T06:27:36;102290.99;;;-0.81;63.53
77019;BME280;66044;53.142;17.962;2023-03-01T06:30:03;102288.21;;;-0.74;63.22
77019;BME280;66044;53.142;17.962;2023-03-01T06:32:29;102290.08;;;-0.65;63.06
77019;BME280;66044;53.142;17.962;2023-03-01T06:34:57;102291.83;;;-0.53;63.22
77019;BME280;66044;53.142;17.962;2023-03-01T06:37:25;102289.52;;;-0.38;62.58
77019;BME280;66044;53.142;17.962;2023-03-01T06:39:51;102292.00;;;-0.23;62.62
77019;BME280;66044;53.142;17.962;2023-03-01T06:42:18;102292.58;;;-0.11;62.56
77019;BME280;66044;53.142;17.962;2023-03-01T06:44:44;102295.48;;;-0.02;62.23
77019;BME280;66044;53.142;17.962;2023-03-01T06:47:12;102299.45;;;0.05;62.02
77019;BME280;66044;53.142;17.962;2023-03-01T06:49:38;102302.92;;;0.12;61.88
77019;BME280;66044;53.142;17.962;2023-03-01T06:52:05;102306.23;;;0.20;61.75
77019;BME280;66044;53.142;17.962;2023-03-01T06:54:31;102307.54;;;0.33;61.76
77019;BME280;66044;53.142;17.962;2023-03-01T06:56:58;102302.44;;;0.57;61.38
77019;BME280;66044;53.142;17.962;2023-03-01T06:59:24;102300.11;;;1.02;60.79
77019;BME280;66044;53.142;17.962;2023-03-01T07:01:51;102293.77;;;1.68;59.94
77019;BME280;66044;53.142;17.962;2023-03-01T07:04:17;102290.36;;;2.46;59.06
77019;BME280;66044;53.142;17.962;2023-03-01T07:06:43;102291.24;;;3.30;58.16
77019;BME280;66044;53.142;17.962;2023-03-01T07:09:10;102294.98;;;4.17;57.05
77019;BME280;66044;53.142;17.962;2023-03-01T07:11:36;102291.94;;;5.11;56.16
77019;BME280;66044;53.142;17.962;2023-03-01T07:14:03;102291.84;;;5.95;54.83
77019;BME280;66044;53.142;17.962;2023-03-01T07:16:29;102297.58;;;6.68;53.87
77019;BME280;66044;53.142;17.962;2023-03-01T07:18:56;102296.54;;;7.52;52.91
77019;BME280;66044;53.142;17.962;2023-03-01T07:21:22;102295.23;;;8.56;51.66
77019;BME280;66044;53.142;17.962;2023-03-01T07:23:49;102290.90;;;9.73;50.09
77019;BME280;66044;53.142;17.962;2023-03-01T07:26:16;102286.94;;;10.90;48.25
77019;BME280;66044;53.142;17.962;2023-03-01T07:28:42;102286.77;;;12.05;46.83
77019;BME280;66044;53.142;17.962;2023-03-01T07:31:09;102288.91;;;13.23;45.42
77019;BME280;66044;53.142;17.962;2023-03-01T07:33:35;102294.40;;;14.32;43.70
77019;BME280;66044;53.142;17.962;2023-03-01T07:36:04;102295.55;;;15.33;42.19
77019;BME280;66044;53.142;17.962;2023-03-01T07:38:30;102296.54;;;16.12;41.06
77019;BME280;66044;53.142;17.962;2023-03-01T07:41:01;102293.85;;;16.70;39.53
77019;BME280;66044;53.142;17.962;2023-03-01T07:43:31;102293.71;;;17.02;38.43
77019;BME280;66044;53.142;17.962;2023-03-01T07:45:59;102292.88;;;17.25;38.00
77019;BME280;66044;53.142;17.962;2023-03-01T07:48:27;102292.64;;;17.39;37.27
77019;BME280;66044;53.142;17.962;2023-03-01T07:50:53;102290.42;;;17.40;36.50
77019;BME280;66044;53.142;17.962;2023-03-01T07:53:20;102286.29;;;17.73;35.87
77019;BME280;66044;53.142;17.962;2023-03-01T07:55:46;102295.20;;;18.59;35.24
77019;BME280;66044;53.142;17.962;2023-03-01T07:58:13;102298.29;;;19.44;34.51
77019;BME280;66044;53.142;17.962;2023-03-01T08:00:39;102296.13;;;19.89;33.65
77019;BME280;66044;53.142;17.962;2023-03-01T08:03:05;102295.25;;;20.43;32.82
77019;BME280;66044;53.142;17.962;2023-03-01T08:05:32;102291.38;;;20.90;32.39
77019;BME280;66044;53.142;17.962;2023-03-01T08:07:58;102284.48;;;21.26;31.85
77019;BME280;66044;53.142;17.962;2023-03-01T08:10:25;102283.01;;;21.67;31.14
77019;BME280;66044;53.142;17.962;2023-03-01T08:12:52;102282.77;;;22.12;30.59
77019;BME280;66044;53.142;17.962;2023-03-01T08:15:19;102282.33;;;22.52;29.75
77019;BME280;66044;53.142;17.962;2023-03-01T08:17:45;102286.54;;;22.51;29.26
77019;BME280;66044;53.142;17.962;2023-03-01T08:20:14;102292.08;;;22.44;29.17
77019;BME280;66044;53.142;17.962;2023-03-01T08:22:41;102298.27;;;22.22;29.05
77019;BME280;66044;53.142;17.962;2023-03-01T08:25:08;102294.05;;;21.80;28.87
77019;BME280;66044;53.142;17.962;2023-03-01T08:27:34;102287.42;;;21.41;29.03
77019;BME280;66044;53.142;17.962;2023-03-01T08:30:01;102286.97;;;21.19;29.26
77019;BME280;66044;53.142;17.962;2023-03-01T08:32:27;102291.55;;;20.87;29.20
77019;BME280;66044;53.142;17.962;2023-03-01T08:34:54;102296.33;;;20.21;29.54
77019;BME280;66044;53.142;17.962;2023-03-01T08:37:20;102296.48;;;19.31;29.93
77019;BME280;66044;53.142;17.962;2023-03-01T08:39:47;102292.55;;;18.40;30.41
77019;BME280;66044;53.142;17.962;2023-03-01T08:42:13;102286.20;;;17.50;30.98
77019;BME280;66044;53.142;17.962;2023-03-01T08:44:40;102274.39;;;16.57;31.44
77019;BME280;66044;53.142;17.962;2023-03-01T08:47:06;102274.22;;;15.67;32.39
77019;BME280;66044;53.142;17.962;2023-03-01T08:49:32;102278.39;;;14.93;33.22
77019;BME280;66044;53.142;17.962;2023-03-01T08:51:59;102280.45;;;14.33;33.94
77019;BME280;66044;53.142;17.962;2023-03-01T08:54:25;102273.61;;;13.85;34.58
77019;BME280;66044;53.142;17.962;2023-03-01T08:56:52;102270.04;;;13.43;35.13
77019;BME280;66044;53.142;17.962;2023-03-01T08:59:18;102269.59;;;13.04;35.86
77019;BME280;66044;53.142;17.962;2023-03-01T09:01:45;102266.08;;;12.64;36.26
77019;BME280;66044;53.142;17.962;2023-03-01T09:04:12;102262.46;;;12.26;36.71
77019;BME280;66044;53.142;17.962;2023-03-01T09:06:40;102263.23;;;11.98;37.69
77019;BME280;66044;53.142;17.962;2023-03-01T09:09:13;102264.64;;;11.70;38.32
77019;BME280;66044;53.142;17.962;2023-03-01T09:11:42;102260.10;;;11.46;38.66
77019;BME280;66044;53.142;17.962;2023-03-01T09:14:09;102264.66;;;11.29;39.25
77019;BME280;66044;53.142;17.962;2023-03-01T09:16:36;102264.64;;;11.15;39.51
77019;BME280;66044;53.142;17.962;2023-03-01T09:19:03;102266.78;;;11.07;39.78
77019;BME280;66044;53.142;17.962;2023-03-01T09:21:29;102269.55;;;11.02;39.85
77019;BME280;66044;53.142;17.962;2023-03-01T09:23:56;102264.70;;;10.94;40.41
77019;BME280;66044;53.142;17.962;2023-03-01T09:26:24;102264.59;;;10.81;40.56
77019;BME280;66044;53.142;17.962;2023-03-01T09:28:53;102263.40;;;10.70;41.20
77019;BME280;66044;53.142;17.962;2023-03-01T09:31:21;102263.39;;;10.60;41.33
77019;BME280;66044;53.142;17.962;2023-03-01T09:33:49;102261.96;;;10.54;41.59
77019;BME280;66044;53.142;17.962;2023-03-01T09:36:18;102263.89;;;10.44;41.99
77019;BME280;66044;53.142;17.962;2023-03-01T09:38:45;102265.30;;;10.33;42.14
77019;BME280;66044;53.142;17.962;2023-03-01T09:41:26;102258.63;;;10.29;42.41
77019;BME280;66044;53.142;17.962;2023-03-01T09:46:46;102254.48;;;10.12;43.09
77019;BME280;66044;53.142;17.962;2023-03-01T09:49:22;102247.86;;;10.07;43.31
77019;BME280;66044;53.142;17.962;2023-03-01T09:52:06;102243.06;;;10.02;43.63
77019;BME280;66044;53.142;17.962;2023-03-01T09:54:35;102245.92;;;9.95;43.88
77019;BME280;66044;53.142;17.962;2023-03-01T09:57:13;102243.13;;;9.86;44.35
77019;BME280;66044;53.142;17.962;2023-03-01T10:00:21;102242.23;;;9.76;44.68
77019;BME280;66044;53.142;17.962;2023-03-01T10:03:11;102236.45;;;9.72;45.05
77019;BME280;66044;53.142;17.962;2023-03-01T10:05:47;102237.41;;;9.75;45.23
77019;BME280;66044;53.142;17.962;2023-03-01T10:11:28;102230.98;;;9.80;45.59
77019;BME280;66044;53.142;17.962;2023-03-01T10:14:07;102229.80;;;9.79;45.69
77019;BME280;66044;53.142;17.962;2023-03-01T10:16:55;102226.59;;;9.73;45.97
77019;BME280;66044;53.142;17.962;2023-03-01T10:19:36;102222.90;;;9.69;46.14
77019;BME280;66044;53.142;17.962;2023-03-01T10:22:27;102220.80;;;9.63;46.34
77019;BME280;66044;53.142;17.962;2023-03-01T10:24:59;102215.16;;;9.60;46.71
77019;BME280;66044;53.142;17.962;2023-03-01T10:27:38;102209.64;;;9.59;46.80
77019;BME280;66044;53.142;17.962;2023-03-01T10:30:20;102203.75;;;9.56;46.81
77019;BME280;66044;53.142;17.962;2023-03-01T10:32:51;102199.14;;;9.49;47.18
77019;BME280;66044;53.142;17.962;2023-03-01T10:35:23;102197.67;;;9.46;46.99
77019;BME280;66044;53.142;17.962;2023-03-01T10:40:29;102188.70;;;9.40;47.37
77019;BME280;66044;53.142;17.962;2023-03-01T10:43:01;102188.52;;;9.34;47.55
77019;BME280;66044;53.142;17.962;2023-03-01T10:45:39;102191.11;;;9.26;47.91
77019;BME280;66044;53.142;17.962;2023-03-01T10:50:35;102186.75;;;9.14;48.17
77019;BME280;66044;53.142;17.962;2023-03-01T10:53:04;102183.90;;;9.07;48.39
77019;BME280;66044;53.142;17.962;2023-03-01T10:55:38;102180.98;;;9.01;48.55
77019;BME280;66044;53.142;17.962;2023-03-01T11:01:09;102170.59;;;8.90;49.00
77019;BME280;66044;53.142;17.962;2023-03-01T11:06:34;102154.20;;;8.72;49.70
77019;BME280;66044;53.142;17.962;2023-03-01T11:09:22;102155.05;;;8.64;49.91
77019;BME280;66044;53.142;17.962;2023-03-01T11:11:54;102155.17;;;8.59;50.14
77019;BME280;66044;53.142;17.962;2023-03-01T11:14:22;102152.58;;;8.55;50.30
77019;BME280;66044;53.142;17.962;2023-03-01T11:17:13;102150.62;;;8.47;50.17
77019;BME280;66044;53.142;17.962;2023-03-01T11:19:41;102150.39;;;8.38;51.01
77019;BME280;66044;53.142;17.962;2023-03-01T11:22:19;102149.34;;;8.33;51.00
77019;BME280;66044;53.142;17.962;2023-03-01T11:24:49;102151.79;;;8.30;51.19
77019;BME280;66044;53.142;17.962;2023-03-01T11:27:24;102141.48;;;8.27;51.20
77019;BME280;66044;53.142;17.962;2023-03-01T11:29:58;102139.12;;;8.24;51.06
77019;BME280;66044;53.142;17.962;2023-03-01T11:32:28;102135.16;;;8.23;51.54
77019;BME280;66044;53.142;17.962;2023-03-01T11:35:26;102143.30;;;8.21;51.49
77019;BME280;66044;53.142;17.962;2023-03-01T11:40:26;102135.80;;;8.21;51.70
77019;BME280;66044;53.142;17.962;2023-03-01T11:46:26;102132.02;;;8.19;51.86
77019;BME280;66044;53.142;17.962;2023-03-01T11:55:07;102129.42;;;8.11;51.18
77019;BME280;66044;53.142;17.962;2023-03-01T11:58:15;102133.29;;;8.06;50.97
77019;BME280;66044;53.142;17.962;2023-03-01T12:03:42;102132.13;;;8.01;51.57
77019;BME280;66044;53.142;17.962;2023-03-01T12:06:26;102126.30;;;8.01;51.24
77019;BME280;66044;53.142;17.962;2023-03-01T12:09:07;102132.55;;;8.02;51.53
77019;BME280;66044;53.142;17.962;2023-03-01T12:20:30;102135.22;;;8.05;51.71
77019;BME280;66044;53.142;17.962;2023-03-01T12:31:44;102132.75;;;8.08;52.32
77019;BME280;66044;53.142;17.962;2023-03-01T12:45:51;102115.83;;;8.09;52.73
77019;BME280;66044;53.142;17.962;2023-03-01T12:51:08;102106.28;;;8.18;52.48
77019;BME280;66044;53.142;17.962;2023-03-01T12:53:42;102103.27;;;8.21;52.58
77019;BME280;66044;53.142;17.962;2023-03-01T12:56:13;102102.73;;;8.24;52.34
77019;BME280;66044;53.142;17.962;2023-03-01T13:01:16;102106.39;;;8.31;52.49
77019;BME280;66044;53.142;17.962;2023-03-01T13:10:02;102096.56;;;8.50;52.14
77019;BME280;66044;53.142;17.962;2023-03-01T13:13:02;102098.36;;;8.56;52.07
77019;BME280;66044;53.142;17.962;2023-03-01T13:15:31;102095.16;;;8.62;51.91
77019;BME280;66044;53.142;17.962;2023-03-01T13:18:04;102090.32;;;8.65;51.67
77019;BME280;66044;53.142;17.962;2023-03-01T13:20:51;102089.71;;;8.69;51.52
77019;BME280;66044;53.142;17.962;2023-03-01T13:31:03;102084.89;;;8.77;51.45
77019;BME280;66044;53.142;17.962;2023-03-01T13:36:00;102084.96;;;8.80;51.30
77019;BME280;66044;53.142;17.962;2023-03-01T13:38:46;102084.73;;;8.82;51.37
77019;BME280;66044;53.142;17.962;2023-03-01T13:41:31;102086.23;;;8.85;51.25
77019;BME280;66044;53.142;17.962;2023-03-01T13:46:44;102086.17;;;8.93;51.18
77019;BME280;66044;53.142;17.962;2023-03-01T13:49:20;102079.83;;;8.96;51.22
77019;BME280;66044;53.142;17.962;2023-03-01T13:51:49;102080.48;;;9.00;50.95
77019;BME280;66044;53.142;17.962;2023-03-01T13:54:25;102076.19;;;9.02;51.15
77019;BME280;66044;53.142;17.962;2023-03-01T13:56:54;102074.76;;;9.06;51.03
77019;BME280;66044;53.142;17.962;2023-03-01T13:59:22;102071.97;;;9.06;50.91
77019;BME280;66044;53.142;17.962;2023-03-01T14:01:58;102072.14;;;9.05;51.00
77019;BME280;66044;53.142;17.962;2023-03-01T14:04:27;102066.67;;;9.04;51.08
77019;BME280;66044;53.142;17.962;2023-03-01T14:07:20;102063.73;;;9.04;51.03
77019;BME280;66044;53.142;17.962;2023-03-01T14:09:51;102064.17;;;9.02;51.10
77019;BME280;66044;53.142;17.962;2023-03-01T14:17:51;102056.80;;;9.05;51.26
77019;BME280;66044;53.142;17.962;2023-03-01T14:20:25;102054.02;;;9.07;51.23
77019;BME280;66044;53.142;17.962;2023-03-01T14:22:55;102053.09;;;9.07;51.31
77019;BME280;66044;53.142;17.962;2023-03-01T14:25:27;102050.69;;;9.07;51.16
77019;BME280;66044;53.142;17.962;2023-03-01T14:30:25;102042.65;;;9.10;50.97
77019;BME280;66044;53.142;17.962;2023-03-01T14:32:58;102041.08;;;9.09;51.12
77019;BME280;66044;53.142;17.962;2023-03-01T14:35:27;102040.44;;;9.09;51.30
77019;BME280;66044;53.142;17.962;2023-03-01T14:37:54;102040.50;;;9.07;51.09
77019;BME280;66044;53.142;17.962;2023-03-01T14:40:33;102040.66;;;9.07;51.30
77019;BME280;66044;53.142;17.962;2023-03-01T14:43:08;102035.09;;;9.06;51.20
77019;BME280;66044;53.142;17.962;2023-03-01T14:45:36;102035.85;;;9.05;51.08
77019;BME280;66044;53.142;17.962;2023-03-01T14:48:05;102034.23;;;9.01;51.21
77019;BME280;66044;53.142;17.962;2023-03-01T14:50:35;102032.31;;;8.99;51.33
77019;BME280;66044;53.142;17.962;2023-03-01T14:53:07;102032.42;;;8.97;51.16